Time;durP1;ratioP1;P1;durP2;ratioP2;P2;SDS_P1;SDS_P2;PMS_P1;PMS_P2;Temp;Humidity;BMP_temperature;BMP_pressure;BME280_temperature;BME280_humidity;BME280_pressure;Samples;Min_cycle;Max_cycle;Signal;HPM_P1;HPM_P2
2021/12/07 00:01:32;;;;;;;9.00;7.40;;;2.60;99.90;;;;;;5045319;28;20450;-66
2021/12/07 00:04:00;;;;;;;10.20;7.80;;;2.60;99.90;;;;;;5044833;28;20447;-67
2021/12/07 00:06:27;;;;;;;9.77;7.57;;;2.60;99.90;;;;;;5044959;28;20493;-70
2021/12/07 00:08:56;;;;;;;8.00;7.13;;;2.60;99.90;;;;;;5044786;28;20459;-66
2021/12/07 00:11:25;;;;;;;9.50;8.00;;;2.70;99.90;;;;;;5045061;28;20460;-67
2021/12/07 00:13:52;;;;;;;9.73;6.97;;;2.70;99.90;;;;;;5044862;28;20448;-68
2021/12/07 00:16:19;;;;;;;10.07;7.33;;;2.80;99.90;;;;;;5044776;28;20515;-69
2021/12/07 00:18:46;;;;;;;7.10;6.13;;;2.80;99.90;;;;;;5044552;28;20466;-68
2021/12/07 00:21:16;;;;;;;8.63;6.37;;;2.80;99.90;;;;;;5057267;28;20482;-66
2021/12/07 00:23:43;;;;;;;7.00;6.30;;;2.90;99.90;;;;;;5061301;28;20483;-68
2021/12/07 00:26:12;;;;;;;7.00;5.43;;;2.90;99.90;;;;;;5051511;28;20494;-67
2021/12/07 00:28:39;;;;;;;9.70;7.10;;;2.90;99.90;;;;;;5046622;28;20451;-68
2021/12/07 00:31:12;;;;;;;10.70;7.53;;;3.00;99.90;;;;;;5049335;28;21072;-67
2021/12/07 00:33:46;;;;;;;8.93;6.03;;;3.00;99.90;;;;;;5051142;28;20494;-66
2021/12/07 00:36:14;;;;;;;6.73;6.03;;;3.00;99.90;;;;;;5051634;28;21097;-68
2021/12/07 00:38:42;;;;;;;7.47;6.70;;;3.00;99.90;;;;;;5051509;28;20447;-68
2021/12/07 00:41:09;;;;;;;6.53;5.73;;;3.00;99.90;;;;;;5051493;28;20468;-69
2021/12/07 00:43:36;;;;;;;9.70;6.70;;;3.00;99.90;;;;;;5051280;28;20447;-67
2021/12/07 00:46:04;;;;;;;8.23;6.30;;;3.00;99.90;;;;;;5051500;28;20477;-67
2021/12/07 00:48:31;;;;;;;7.97;7.07;;;3.00;99.90;;;;;;5050915;28;20537;-66
2021/12/07 00:50:59;;;;;;;9.30;6.80;;;3.00;99.90;;;;;;5051427;28;20600;-67
2021/12/07 00:53:28;;;;;;;9.27;6.50;;;3.10;99.90;;;;;;5050959;28;20451;-67
2021/12/07 00:55:57;;;;;;;6.23;5.30;;;3.10;99.90;;;;;;5051327;28;20538;-67
2021/12/07 00:58:25;;;;;;;5.23;4.43;;;3.10;99.90;;;;;;5050994;28;20971;-67
2021/12/07 01:00:55;;;;;;;6.00;4.50;;;3.10;99.90;;;;;;5051136;28;20514;-70
2021/12/07 01:03:23;;;;;;;6.77;5.10;;;3.00;99.90;;;;;;5051115;28;21025;-69
2021/12/07 01:05:54;;;;;;;6.87;4.87;;;2.90;99.90;;;;;;5050834;28;20488;-67
2021/12/07 01:08:52;;;;;;;5.97;4.10;;;2.90;99.90;;;;;;5062071;28;20950;-66
2021/12/07 01:25:19;;;;;;;7.03;5.30;;;2.60;99.90;;;;;;5050875;28;20871;-68
2021/12/07 01:27:50;;;;;;;5.53;4.33;;;2.70;99.90;;;;;;5051006;28;20934;-67
2021/12/07 01:30:20;;;;;;;7.37;5.47;;;2.70;99.90;;;;;;5050657;28;20461;-69
2021/12/07 01:33:07;;;;;;;6.23;4.67;;;2.70;99.90;;;;;;5051303;28;20442;-69
2021/12/07 01:41:13;;;;;;;6.13;4.70;;;2.80;99.90;;;;;;5019115;28;20453;-67
2021/12/07 01:44:00;;;;;;;7.53;4.57;;;2.80;99.90;;;;;;5050650;28;20437;-67
2021/12/07 01:46:54;;;;;;;5.90;4.50;;;2.90;99.90;;;;;;5050404;28;20983;-69
2021/12/07 01:52:30;;;;;;;4.70;3.70;;;2.90;99.90;;;;;;5050228;28;20501;-66
2021/12/07 02:00:30;;;;;;;4.90;4.00;;;3.10;99.90;;;;;;5050157;28;20437;-66
2021/12/07 02:02:57;;;;;;;5.30;3.80;;;3.10;99.90;;;;;;5049955;28;21071;-67
2021/12/07 02:05:24;;;;;;;6.00;3.80;;;3.20;99.90;;;;;;5050029;28;20485;-69
2021/12/07 02:07:51;;;;;;;5.90;4.90;;;3.20;99.90;;;;;;5049759;28;20452;-67
2021/12/07 02:10:22;;;;;;;5.23;3.63;;;3.20;99.90;;;;;;5049859;28;20467;-68
2021/12/07 02:12:51;;;;;;;4.20;3.40;;;3.20;99.90;;;;;;5049800;28;20452;-68
2021/12/07 02:15:20;;;;;;;5.70;3.60;;;3.20;99.90;;;;;;5049542;28;20483;-66
2021/12/07 02:17:50;;;;;;;6.40;3.97;;;3.10;99.90;;;;;;5049387;28;20451;-66
2021/12/07 02:20:24;;;;;;;5.20;3.57;;;3.00;99.90;;;;;;5049802;28;20461;-68
2021/12/07 02:22:53;;;;;;;5.87;3.83;;;3.00;99.90;;;;;;5049925;28;20448;-67
2021/12/07 02:25:20;;;;;;;5.73;3.83;;;2.90;99.90;;;;;;5049822;28;20482;-67
2021/12/07 02:27:49;;;;;;;5.23;3.90;;;3.00;99.90;;;;;;5049727;28;20531;-66
2021/12/07 02:30:19;;;;;;;7.00;4.80;;;3.00;99.90;;;;;;5049544;28;20824;-67
2021/12/07 02:32:47;;;;;;;5.43;4.20;;;3.00;99.90;;;;;;5049714;28;20940;-67
2021/12/07 02:35:21;;;;;;;4.70;3.57;;;3.00;99.90;;;;;;5049876;28;20508;-67
2021/12/07 02:37:48;;;;;;;4.40;3.50;;;3.00;99.90;;;;;;5049368;28;21106;-67
2021/12/07 02:40:17;;;;;;;5.17;3.90;;;3.00;99.90;;;;;;5049512;28;20459;-67
2021/12/07 02:42:45;;;;;;;6.20;4.00;;;3.00;99.90;;;;;;5049537;28;20446;-67
2021/12/07 02:45:13;;;;;;;5.07;4.00;;;3.00;99.90;;;;;;5049384;28;20445;-67
2021/12/07 02:47:40;;;;;;;4.10;3.43;;;3.00;99.90;;;;;;5049387;28;20996;-67
2021/12/07 02:50:08;;;;;;;4.77;3.73;;;3.10;99.90;;;;;;5049221;28;20473;-66
2021/12/07 02:52:36;;;;;;;5.20;3.60;;;3.10;99.90;;;;;;5049167;28;20439;-67
2021/12/07 02:55:03;;;;;;;4.67;3.23;;;3.20;99.90;;;;;;5049243;28;20455;-68
2021/12/07 02:57:33;;;;;;;5.77;2.73;;;3.20;99.90;;;;;;5049043;28;20436;-67
2021/12/07 03:00:06;;;;;;;5.43;3.23;;;3.20;99.90;;;;;;5048933;28;20469;-71
2021/12/07 03:02:39;;;;;;;4.20;3.00;;;3.20;99.90;;;;;;5049422;28;20449;-67
2021/12/07 03:05:16;;;;;;;5.67;2.77;;;3.20;99.90;;;;;;5048951;28;20955;-66
2021/12/07 03:07:53;;;;;;;5.70;3.03;;;3.20;99.90;;;;;;5048779;28;20426;-68
2021/12/07 03:26:59;;;;;;;3.60;2.33;;;3.10;99.90;;;;;;5048382;28;20532;-67
2021/12/07 03:29:27;;;;;;;5.23;2.93;;;3.10;99.90;;;;;;5048628;28;21004;-67
2021/12/07 03:31:54;;;;;;;3.73;2.90;;;3.10;99.90;;;;;;5048744;28;20932;-68
2021/12/07 03:34:20;;;;;;;5.00;3.60;;;3.10;99.90;;;;;;5048802;28;20452;-67
2021/12/07 03:36:47;;;;;;;5.40;3.50;;;3.20;99.90;;;;;;5048492;28;21079;-67
2021/12/07 03:39:14;;;;;;;4.03;2.93;;;3.20;99.90;;;;;;5048779;28;20445;-68
2021/12/07 03:41:41;;;;;;;3.80;2.60;;;3.20;99.90;;;;;;5048202;28;20450;-67
2021/12/07 03:44:08;;;;;;;3.77;2.90;;;3.30;99.90;;;;;;5048467;28;20439;-68
2021/12/07 03:46:36;;;;;;;4.70;3.17;;;3.20;99.90;;;;;;5048203;28;20487;-68
2021/12/07 03:49:04;;;;;;;4.30;3.00;;;3.20;99.90;;;;;;5048502;28;20524;-67
2021/12/07 03:51:31;;;;;;;4.23;2.60;;;3.30;99.90;;;;;;5048827;28;20825;-67
2021/12/07 03:53:58;;;;;;;4.20;2.60;;;3.20;99.90;;;;;;5048541;28;20944;-67
2021/12/07 03:56:25;;;;;;;5.40;2.90;;;3.20;99.90;;;;;;5048067;28;20446;-69
2021/12/07 03:58:51;;;;;;;4.40;2.80;;;3.20;99.90;;;;;;5048640;28;20442;-67
2021/12/07 04:01:23;;;;;;;3.93;2.40;;;3.20;99.90;;;;;;5048805;28;20460;-66
2021/12/07 04:03:53;;;;;;;4.40;2.60;;;3.20;99.90;;;;;;5048414;28;20453;-67
2021/12/07 04:06:20;;;;;;;6.17;3.17;;;3.20;99.90;;;;;;5051882;28;20482;-68
2021/12/07 04:08:47;;;;;;;3.50;2.40;;;3.20;99.90;;;;;;5052399;28;20443;-68
2021/12/07 04:11:15;;;;;;;5.90;3.30;;;3.20;99.90;;;;;;5052747;28;20467;-67
2021/12/07 04:13:44;;;;;;;4.07;2.70;;;3.30;99.90;;;;;;5052331;28;21306;-66
2021/12/07 04:16:12;;;;;;;4.07;2.53;;;3.20;99.90;;;;;;5052376;28;20941;-67
2021/12/07 04:18:39;;;;;;;4.60;3.00;;;3.20;99.90;;;;;;5052001;28;20442;-67
2021/12/07 04:21:08;;;;;;;5.50;2.80;;;3.30;99.90;;;;;;5052098;28;20462;-67
2021/12/07 04:23:36;;;;;;;3.63;2.70;;;3.30;99.90;;;;;;5052081;28;20460;-67
2021/12/07 04:26:06;;;;;;;7.40;3.60;;;3.40;99.90;;;;;;5052065;28;20490;-68
2021/12/07 04:28:33;;;;;;;4.00;3.00;;;3.50;99.90;;;;;;5052091;28;20447;-68
2021/12/07 04:31:00;;;;;;;3.23;2.13;;;3.40;99.90;;;;;;5051812;28;20470;-69
2021/12/07 04:33:29;;;;;;;3.83;2.10;;;3.50;99.90;;;;;;5052216;28;20453;-70
2021/12/07 04:35:57;;;;;;;2.60;1.63;;;3.50;99.90;;;;;;5051898;28;20900;-68
2021/12/07 04:38:25;;;;;;;4.20;2.70;;;3.50;99.90;;;;;;5051764;28;20450;-67
2021/12/07 04:40:52;;;;;;;4.10;2.80;;;3.40;99.90;;;;;;5051731;28;20555;-69
2021/12/07 04:43:19;;;;;;;3.97;2.97;;;3.40;99.90;;;;;;5051629;28;20920;-67
2021/12/07 04:45:58;;;;;;;5.47;2.83;;;3.30;99.90;;;;;;5051491;28;20933;-69
2021/12/07 04:48:49;;;;;;;4.10;2.60;;;3.30;99.90;;;;;;5051717;28;20501;-67
2021/12/07 04:59:31;;;;;;;3.10;2.13;;;3.50;99.90;;;;;;5051660;28;20966;-68
2021/12/07 05:01:57;;;;;;;3.93;2.33;;;3.50;99.90;;;;;;5051260;28;20448;-68
2021/12/07 05:04:28;;;;;;;2.83;2.03;;;3.40;99.90;;;;;;5051337;28;21384;-70
2021/12/07 05:07:03;;;;;;;5.57;2.13;;;3.30;99.90;;;;;;5050861;28;20534;-69
2021/12/07 05:09:51;;;;;;;3.13;2.00;;;3.30;99.90;;;;;;5051393;28;20462;-68
2021/12/07 05:12:26;;;;;;;3.57;2.10;;;3.20;99.90;;;;;;5051144;28;20953;-66
2021/12/07 05:15:00;;;;;;;3.40;2.87;;;3.10;99.90;;;;;;5051195;28;20444;-67
2021/12/07 05:17:55;;;;;;;3.47;1.97;;;3.00;99.90;;;;;;5050573;28;20438;-68
2021/12/07 05:39:29;;;;;;;3.83;2.50;;;2.80;99.90;;;;;;5070409;28;20517;-64
2021/12/07 05:41:58;;;;;;;3.80;1.97;;;2.80;99.90;;;;;;5070899;28;20437;-64
2021/12/07 05:44:25;;;;;;;4.43;2.10;;;2.80;99.90;;;;;;5070359;28;20550;-70
2021/12/07 05:46:52;;;;;;;4.87;2.70;;;2.90;99.90;;;;;;5070117;28;21081;-65
2021/12/07 05:49:19;;;;;;;3.37;2.20;;;2.90;99.90;;;;;;5070770;28;20459;-64
2021/12/07 05:51:46;;;;;;;4.43;2.50;;;3.00;99.90;;;;;;5070056;28;20438;-63
2021/12/07 05:54:13;;;;;;;5.03;2.80;;;3.10;99.90;;;;;;5061616;28;20456;-62
2021/12/07 05:56:39;;;;;;;8.70;4.80;;;3.10;99.90;;;;;;5068714;28;20435;-63
2021/12/07 05:59:08;;;;;;;9.50;3.33;;;3.10;99.90;;;;;;5068800;28;20442;-62
2021/12/07 06:01:34;;;;;;;5.40;3.57;;;3.10;99.90;;;;;;5063128;28;20557;-64
2021/12/07 06:04:01;;;;;;;4.47;3.47;;;3.20;99.90;;;;;;5062521;28;20928;-65
2021/12/07 06:06:28;;;;;;;5.00;3.50;;;3.20;99.90;;;;;;5059551;28;20472;-63
2021/12/07 06:08:55;;;;;;;4.73;3.60;;;3.20;99.90;;;;;;5057626;28;20481;-64
2021/12/07 06:11:23;;;;;;;10.30;3.80;;;3.20;99.90;;;;;;5066460;28;20486;-65
2021/12/07 06:13:50;;;;;;;5.03;3.67;;;3.30;99.90;;;;;;5067835;28;20458;-65
2021/12/07 06:16:19;;;;;;;5.90;3.57;;;3.20;99.90;;;;;;5067464;28;20436;-64
2021/12/07 06:18:46;;;;;;;6.07;4.20;;;3.30;99.90;;;;;;5067453;28;20512;-65
2021/12/07 06:21:14;;;;;;;6.07;4.17;;;3.30;99.90;;;;;;5067397;28;20466;-63
2021/12/07 06:23:41;;;;;;;8.40;3.53;;;3.20;99.90;;;;;;5067927;28;20983;-62
2021/12/07 06:26:08;;;;;;;5.07;2.77;;;3.30;99.90;;;;;;5067679;28;20442;-62
2021/12/07 06:28:35;;;;;;;4.40;3.53;;;3.30;99.90;;;;;;5067316;28;20530;-63
2021/12/07 06:31:03;;;;;;;5.37;3.43;;;3.30;99.90;;;;;;5068925;28;20622;-63
2021/12/07 06:33:31;;;;;;;6.90;3.00;;;3.40;99.90;;;;;;5069416;28;20439;-63
2021/12/07 06:36:01;;;;;;;6.07;3.80;;;3.40;99.90;;;;;;5069497;28;20539;-63
2021/12/07 06:38:30;;;;;;;5.20;3.40;;;3.40;99.90;;;;;;5068928;28;20456;-62
2021/12/07 06:40:57;;;;;;;4.10;3.20;;;3.50;99.90;;;;;;5069062;28;20485;-62
2021/12/07 06:43:24;;;;;;;9.80;3.20;;;3.60;99.90;;;;;;5069207;28;20447;-64
2021/12/07 06:45:52;;;;;;;7.80;2.87;;;3.70;99.90;;;;;;5069269;28;20438;-63
2021/12/07 06:48:19;;;;;;;7.60;3.50;;;3.70;99.90;;;;;;5068870;28;20576;-64
2021/12/07 06:50:48;;;;;;;10.20;3.43;;;3.60;99.90;;;;;;5069362;28;20467;-64
2021/12/07 06:53:15;;;;;;;5.80;2.83;;;3.60;99.90;;;;;;5069217;28;20543;-64
2021/12/07 06:55:42;;;;;;;5.90;2.70;;;3.60;99.90;;;;;;5069383;28;20489;-63
2021/12/07 06:58:09;;;;;;;7.10;2.80;;;3.70;99.90;;;;;;5068693;28;20473;-64
2021/12/07 07:00:37;;;;;;;4.37;2.90;;;3.80;99.90;;;;;;5068996;28;20470;-65
2021/12/07 07:03:04;;;;;;;4.23;2.60;;;3.80;99.90;;;;;;5068754;28;20449;-65
2021/12/07 07:05:31;;;;;;;5.33;3.20;;;3.70;99.90;;;;;;5068593;28;20439;-63
2021/12/07 07:07:59;;;;;;;7.60;2.60;;;3.80;99.90;;;;;;5068300;28;20472;-66
2021/12/07 07:10:26;;;;;;;5.23;2.43;;;3.80;99.90;;;;;;5068413;28;20452;-64
2021/12/07 07:12:53;;;;;;;10.43;3.20;;;3.90;99.90;;;;;;5068646;28;20850;-64
2021/12/07 07:15:21;;;;;;;6.43;2.20;;;3.80;99.90;;;;;;5068504;28;20809;-65
2021/12/07 07:17:48;;;;;;;10.23;3.63;;;3.80;99.90;;;;;;5068325;28;20439;-66
2021/12/07 07:20:17;;;;;;;4.67;2.83;;;3.80;99.90;;;;;;5069224;28;20470;-64
2021/12/07 07:22:44;;;;;;;9.10;4.70;;;3.70;99.90;;;;;;5068290;28;21013;-65
2021/12/07 07:25:13;;;;;;;11.73;3.23;;;3.70;99.90;;;;;;5068437;28;20445;-63
2021/12/07 07:27:40;;;;;;;9.53;3.27;;;3.70;99.90;;;;;;5067943;28;20568;-65
2021/12/07 07:30:10;;;;;;;9.70;3.17;;;3.70;99.90;;;;;;5068520;28;20469;-65
2021/12/07 07:32:37;;;;;;;9.33;2.80;;;3.70;99.90;;;;;;5068101;28;20442;-65
2021/12/07 07:35:05;;;;;;;11.23;3.33;;;3.70;99.90;;;;;;5068214;28;20540;-66
2021/12/07 07:37:32;;;;;;;5.30;3.00;;;3.70;99.90;;;;;;5068273;28;20479;-65
2021/12/07 07:39:59;;;;;;;6.87;2.60;;;3.70;99.90;;;;;;5066878;28;21043;-66
2021/12/07 07:42:27;;;;;;;8.70;3.20;;;3.70;99.90;;;;;;5068232;28;20810;-66
2021/12/07 07:44:54;;;;;;;10.80;3.40;;;3.70;99.90;;;;;;5068278;28;20500;-65
2021/12/07 07:47:21;;;;;;;6.93;3.43;;;3.70;99.90;;;;;;5067540;28;20470;-66
2021/12/07 07:49:48;;;;;;;10.23;3.70;;;3.70;99.90;;;;;;5068100;28;20814;-66
2021/12/07 07:52:16;;;;;;;5.63;2.73;;;3.70;99.90;;;;;;5068515;28;20450;-66
2021/12/07 07:54:43;;;;;;;8.77;3.47;;;3.70;99.90;;;;;;5068227;28;20821;-66
2021/12/07 07:57:10;;;;;;;5.93;2.93;;;3.80;99.90;;;;;;5067616;28;20562;-66
2021/12/07 07:59:39;;;;;;;8.57;3.00;;;3.90;99.90;;;;;;5067948;28;20569;-67
2021/12/07 08:02:06;;;;;;;4.33;2.50;;;3.90;99.90;;;;;;5067734;28;20526;-65
2021/12/07 08:04:34;;;;;;;6.77;3.37;;;3.80;99.90;;;;;;5068116;28;20541;-66
2021/12/07 08:07:01;;;;;;;7.83;3.10;;;3.80;99.90;;;;;;5067381;28;20600;-64
2021/12/07 08:09:28;;;;;;;6.20;3.47;;;3.80;99.90;;;;;;5067814;28;20486;-64
2021/12/07 08:11:55;;;;;;;13.33;3.27;;;3.90;99.90;;;;;;5067724;28;20541;-65
2021/12/07 08:14:22;;;;;;;9.50;3.00;;;4.00;99.90;;;;;;5067571;28;20437;-66
2021/12/07 08:16:50;;;;;;;7.43;2.70;;;4.10;99.90;;;;;;5067250;28;20933;-66
2021/12/07 08:19:17;;;;;;;16.07;3.27;;;4.10;99.90;;;;;;5067797;28;20471;-66
2021/12/07 08:21:44;;;;;;;9.20;2.50;;;4.20;99.90;;;;;;5067621;28;20518;-66
2021/12/07 08:24:11;;;;;;;7.60;3.00;;;4.30;99.90;;;;;;5067836;28;20438;-66
2021/12/07 08:26:38;;;;;;;8.47;2.83;;;4.30;99.90;;;;;;5067575;28;20450;-66
2021/12/07 08:29:05;;;;;;;6.13;2.50;;;4.40;99.90;;;;;;5067725;28;20484;-67
2021/12/07 08:31:32;;;;;;;6.10;2.70;;;4.40;99.90;;;;;;5067743;28;20561;-65
2021/12/07 08:34:01;;;;;;;4.87;2.23;;;4.40;99.90;;;;;;5067747;28;20536;-65
2021/12/07 08:36:29;;;;;;;6.87;2.70;;;4.50;99.90;;;;;;5067493;28;20968;-66
2021/12/07 08:38:56;;;;;;;9.03;2.53;;;4.50;99.90;;;;;;5067680;28;20524;-65
2021/12/07 08:41:24;;;;;;;4.30;2.40;;;4.50;99.90;;;;;;5067508;28;20442;-65
2021/12/07 08:43:51;;;;;;;5.63;2.50;;;4.60;99.90;;;;;;5067308;28;20920;-65
2021/12/07 08:46:19;;;;;;;5.30;2.20;;;4.70;99.90;;;;;;5067312;28;20526;-64
2021/12/07 08:48:46;;;;;;;4.30;2.00;;;4.70;99.90;;;;;;5067245;28;20577;-65
2021/12/07 08:51:15;;;;;;;4.13;2.20;;;4.70;99.90;;;;;;5068470;28;20481;-65
2021/12/07 08:53:49;;;;;;;5.63;2.37;;;4.70;99.90;;;;;;5070987;28;20533;-65
2021/12/07 09:01:45;;;;;;;13.40;2.80;;;4.80;99.90;;;;;;5071062;28;20426;-65
2021/12/07 09:04:17;;;;;;;6.60;2.40;;;4.90;99.90;;;;;;5071065;28;20475;-66
2021/12/07 09:06:45;;;;;;;4.60;1.90;;;4.90;99.90;;;;;;5070497;28;20442;-65
2021/12/07 09:09:12;;;;;;;4.20;2.37;;;5.00;99.90;;;;;;5070899;28;21210;-66
2021/12/07 09:11:39;;;;;;;4.77;1.77;;;5.00;99.90;;;;;;5070623;28;20447;-66
2021/12/07 09:14:09;;;;;;;6.33;2.40;;;5.00;99.90;;;;;;5070848;28;20526;-64
2021/12/07 09:16:36;;;;;;;7.00;2.00;;;5.00;99.90;;;;;;5070346;28;20534;-65
2021/12/07 09:19:03;;;;;;;8.97;2.83;;;5.00;99.90;;;;;;5070745;28;20526;-66
2021/12/07 09:21:30;;;;;;;2.80;1.63;;;5.10;99.90;;;;;;5070818;28;20534;-67
2021/12/07 09:23:58;;;;;;;8.67;2.30;;;5.00;99.90;;;;;;5070403;28;20944;-65
2021/12/07 09:26:26;;;;;;;7.57;2.23;;;5.00;99.90;;;;;;5070224;28;20813;-65
2021/12/07 09:28:52;;;;;;;5.30;1.93;;;5.00;99.90;;;;;;5070436;28;20593;-65
2021/12/07 09:31:21;;;;;;;5.87;1.60;;;4.90;99.90;;;;;;5070179;28;21111;-67
2021/12/07 09:33:48;;;;;;;5.90;2.23;;;4.90;99.90;;;;;;5070427;28;20508;-65
2021/12/07 09:36:16;;;;;;;5.60;2.60;;;4.90;99.90;;;;;;5070113;28;20875;-65
2021/12/07 09:38:43;;;;;;;4.07;2.20;;;4.80;99.90;;;;;;5070725;28;20551;-66
2021/12/07 09:41:13;;;;;;;3.93;1.80;;;4.90;99.90;;;;;;5070165;28;21051;-67
2021/12/07 09:43:40;;;;;;;6.87;2.07;;;5.00;99.90;;;;;;5070151;28;20496;-67
2021/12/07 09:46:11;;;;;;;6.10;2.63;;;5.00;99.90;;;;;;5070068;28;20460;-66
2021/12/07 09:48:39;;;;;;;4.37;1.73;;;5.20;99.90;;;;;;5069820;28;20474;-64
2021/12/07 09:51:07;;;;;;;5.87;2.23;;;5.40;99.90;;;;;;5069883;28;20549;-64
2021/12/07 09:53:35;;;;;;;3.10;1.33;;;5.40;99.90;;;;;;5070159;28;20447;-64
2021/12/07 09:56:03;;;;;;;6.07;1.90;;;5.30;99.90;;;;;;5070219;28;20445;-64
2021/12/07 09:58:31;;;;;;;5.73;1.67;;;5.20;99.90;;;;;;5069459;28;20444;-66
2021/12/07 10:00:58;;;;;;;6.67;2.10;;;5.20;99.90;;;;;;5069976;28;20490;-64
2021/12/07 10:03:25;;;;;;;4.27;1.80;;;5.20;99.90;;;;;;5069235;28;20453;-65
2021/12/07 10:05:53;;;;;;;6.30;1.90;;;5.30;99.90;;;;;;5069697;28;20454;-64
2021/12/07 10:08:20;;;;;;;11.93;2.77;;;5.50;99.90;;;;;;5069586;28;20509;-65
2021/12/07 10:10:51;;;;;;;6.77;2.10;;;5.70;99.90;;;;;;5069847;28;20873;-66
2021/12/07 10:13:20;;;;;;;5.37;2.13;;;5.80;99.90;;;;;;5069446;28;20457;-65
2021/12/07 10:15:49;;;;;;;4.50;1.67;;;5.80;99.90;;;;;;5069512;28;20513;-66
2021/12/07 10:18:18;;;;;;;6.57;1.60;;;5.80;99.90;;;;;;5069243;28;20543;-66
2021/12/07 10:20:46;;;;;;;4.23;1.87;;;5.70;99.90;;;;;;5069465;28;20830;-66
2021/12/07 10:23:26;;;;;;;3.87;1.50;;;5.70;99.90;;;;;;5069229;28;20458;-66
2021/12/07 10:25:56;;;;;;;3.70;1.97;;;5.90;99.90;;;;;;5069337;28;20535;-66
2021/12/07 10:28:29;;;;;;;3.87;1.70;;;6.00;99.90;;;;;;5068714;28;20503;-66
2021/12/07 10:31:01;;;;;;;3.00;1.70;;;6.20;99.90;;;;;;5069188;28;20991;-66
2021/12/07 10:33:33;;;;;;;3.83;1.50;;;6.60;99.90;;;;;;5069435;28;20554;-65
2021/12/07 10:36:11;;;;;;;5.87;2.10;;;6.80;99.90;;;;;;5069304;28;20471;-67
2021/12/07 10:38:39;;;;;;;6.40;1.63;;;7.00;99.90;;;;;;5069056;28;20435;-65
2021/12/07 10:41:09;;;;;;;7.90;2.67;;;7.00;99.90;;;;;;5068784;28;20977;-65
2021/12/07 10:43:47;;;;;;;6.10;1.60;;;6.90;99.90;;;;;;5068927;28;20849;-65
2021/12/07 10:46:36;;;;;;;5.40;1.40;;;6.80;99.90;;;;;;5068462;28;20474;-64
2021/12/07 10:49:23;;;;;;;5.10;1.80;;;6.70;99.90;;;;;;5068576;28;20908;-65
2021/12/07 10:52:18;;;;;;;3.43;1.40;;;6.60;99.90;;;;;;5068677;28;20459;-67
2021/12/07 10:54:52;;;;;;;5.90;1.60;;;6.60;99.90;;;;;;5068573;28;20464;-68
2021/12/07 10:57:22;;;;;;;5.90;2.23;;;6.70;99.90;;;;;;5068433;28;20439;-66
2021/12/07 11:00:05;;;;;;;6.60;1.63;;;6.80;99.90;;;;;;5068210;28;20547;-64
2021/12/07 11:02:34;;;;;;;4.70;1.47;;;7.10;99.90;;;;;;5068740;28;20467;-66
2021/12/07 11:05:03;;;;;;;6.30;1.77;;;7.30;99.90;;;;;;5068518;28;20447;-68
2021/12/07 11:07:31;;;;;;;5.60;1.97;;;7.50;99.90;;;;;;5068117;28;20440;-65
2021/12/07 11:10:07;;;;;;;3.90;1.50;;;7.70;99.90;;;;;;5068469;28;20502;-64
2021/12/07 11:12:44;;;;;;;4.67;1.40;;;7.80;99.90;;;;;;5068615;28;20805;-65
2021/12/07 11:15:19;;;;;;;3.93;1.80;;;7.70;99.90;;;;;;5068282;28;20440;-65
2021/12/07 11:17:47;;;;;;;4.77;1.83;;;7.70;99.90;;;;;;5067633;28;20500;-65
2021/12/07 11:20:15;;;;;;;9.17;1.77;;;7.80;99.90;;;;;;5068318;28;20539;-65
2021/12/07 11:22:46;;;;;;;4.87;2.30;;;7.80;99.90;;;;;;5067710;28;20535;-65
2021/12/07 11:25:32;;;;;;;4.20;2.03;;;7.90;99.90;;;;;;5067872;28;20939;-66
2021/12/07 11:30:44;;;;;;;5.60;1.27;;;7.70;99.90;;;;;;5067810;28;20457;-66
2021/12/07 11:33:24;;;;;;;6.50;2.00;;;7.60;99.90;;;;;;5068450;28;20447;-64
2021/12/07 11:35:51;;;;;;;3.83;2.37;;;7.60;99.90;;;;;;5068771;28;20536;-66
2021/12/07 11:38:30;;;;;;;3.77;1.40;;;7.50;99.90;;;;;;5067800;28;20450;-66
2021/12/07 11:41:16;;;;;;;5.53;1.40;;;7.50;99.90;;;;;;5067959;28;20462;-66
2021/12/07 11:43:51;;;;;;;4.73;1.57;;;7.40;99.90;;;;;;5067583;28;20443;-66
2021/12/07 11:46:20;;;;;;;5.40;1.80;;;7.20;99.90;;;;;;5067742;28;20519;-65
2021/12/07 11:48:49;;;;;;;5.30;1.80;;;7.20;99.90;;;;;;5067722;28;20511;-65
2021/12/07 11:51:16;;;;;;;6.77;1.60;;;7.30;99.90;;;;;;5067592;28;20531;-65
2021/12/07 11:53:43;;;;;;;3.50;1.63;;;7.30;99.90;;;;;;5068048;28;20535;-64
2021/12/07 11:56:11;;;;;;;5.50;1.77;;;7.50;99.90;;;;;;5068159;28;20450;-65
2021/12/07 11:58:38;;;;;;;5.50;1.67;;;7.40;99.90;;;;;;5067759;28;20440;-65
2021/12/07 12:01:06;;;;;;;3.60;1.43;;;7.50;99.90;;;;;;5067704;28;20475;-64
2021/12/07 12:03:33;;;;;;;3.63;1.50;;;7.60;99.90;;;;;;5067509;28;21032;-65
2021/12/07 12:06:01;;;;;;;3.43;1.63;;;7.60;99.90;;;;;;5067685;28;20531;-65
2021/12/07 12:08:29;;;;;;;3.83;1.30;;;7.70;99.90;;;;;;5066888;28;21008;-65
2021/12/07 12:10:59;;;;;;;7.43;2.40;;;7.70;99.90;;;;;;5067650;28;20550;-65
2021/12/07 12:13:39;;;;;;;3.53;1.47;;;7.70;99.90;;;;;;5067371;28;20978;-66
2021/12/07 12:16:18;;;;;;;5.23;2.13;;;7.80;99.90;;;;;;5067863;28;20437;-65
2021/12/07 12:18:58;;;;;;;3.37;1.03;;;8.00;99.90;;;;;;5067336;28;20432;-67
2021/12/07 12:21:37;;;;;;;3.00;1.60;;;8.00;99.90;;;;;;5068340;28;20471;-66
2021/12/07 12:24:12;;;;;;;2.30;1.13;;;8.20;99.90;;;;;;5068359;28;20539;-66
2021/12/07 12:26:39;;;;;;;4.20;1.17;;;8.40;99.90;;;;;;5070139;28;20854;-65
2021/12/07 12:29:17;;;;;;;6.40;1.80;;;8.40;99.90;;;;;;5072315;28;20482;-66
2021/12/07 12:31:47;;;;;;;2.80;1.27;;;8.20;99.90;;;;;;5072129;28;20478;-66
2021/12/07 12:34:20;;;;;;;4.67;1.60;;;8.00;99.90;;;;;;5072001;28;20520;-65
2021/12/07 12:37:03;;;;;;;2.30;1.03;;;8.00;99.90;;;;;;5071011;28;20995;-65
2021/12/07 12:39:54;;;;;;;3.80;1.33;;;8.00;99.90;;;;;;5071171;28;20562;-65
2021/12/07 12:42:28;;;;;;;3.63;1.20;;;7.90;99.90;;;;;;5071402;28;20489;-65
2021/12/07 12:44:59;;;;;;;5.60;1.40;;;7.90;99.90;;;;;;5070978;28;21020;-64
2021/12/07 12:47:28;;;;;;;3.20;1.20;;;7.80;99.90;;;;;;5071063;28;20427;-66
2021/12/07 12:49:55;;;;;;;2.47;1.17;;;7.70;99.90;;;;;;5071965;28;20487;-66
2021/12/07 12:52:40;;;;;;;2.70;1.30;;;7.60;99.90;;;;;;5071129;28;20953;-66
2021/12/07 12:55:25;;;;;;;2.90;1.53;;;7.60;99.90;;;;;;5070863;28;20455;-66
2021/12/07 12:57:53;;;;;;;2.80;1.33;;;7.80;99.90;;;;;;5070473;28;20489;-66
2021/12/07 13:00:20;;;;;;;4.10;1.87;;;7.90;99.90;;;;;;5070395;28;21031;-67
2021/12/07 13:02:51;;;;;;;4.30;1.50;;;8.10;99.90;;;;;;5070764;28;20989;-66
2021/12/07 13:05:32;;;;;;;5.20;1.93;;;8.20;99.90;;;;;;5070720;28;20443;-64
2021/12/07 13:08:17;;;;;;;6.00;2.00;;;8.20;99.90;;;;;;5071700;28;20442;-65
2021/12/07 13:10:58;;;;;;;3.43;1.50;;;8.00;99.90;;;;;;5070224;28;20984;-64
2021/12/07 13:13:27;;;;;;;4.83;1.50;;;7.90;99.90;;;;;;5070606;28;20530;-64
2021/12/07 13:15:54;;;;;;;3.13;1.50;;;7.90;99.90;;;;;;5070095;28;20519;-65
2021/12/07 13:18:22;;;;;;;3.80;1.40;;;7.80;99.90;;;;;;5070201;28;20436;-65
2021/12/07 13:20:50;;;;;;;6.97;1.70;;;7.70;99.90;;;;;;5070337;28;20459;-60
2021/12/07 13:23:19;;;;;;;4.57;1.30;;;7.70;99.90;;;;;;5070277;28;20454;-65
2021/12/07 13:25:48;;;;;;;6.03;1.30;;;7.70;99.90;;;;;;5070360;28;20540;-66
2021/12/07 13:28:24;;;;;;;6.33;1.60;;;7.60;99.90;;;;;;5069747;28;20443;-66
2021/12/07 13:30:55;;;;;;;3.40;1.17;;;7.70;99.90;;;;;;5069977;28;20956;-66
2021/12/07 13:33:24;;;;;;;3.93;1.53;;;7.70;99.90;;;;;;5070155;28;20998;-65
2021/12/07 13:35:53;;;;;;;4.93;1.27;;;7.80;99.90;;;;;;5070210;28;20942;-66
2021/12/07 13:38:25;;;;;;;4.87;1.77;;;7.80;99.90;;;;;;5068419;28;20442;-66
2021/12/07 13:40:54;;;;;;;4.10;1.50;;;7.90;99.90;;;;;;5069989;28;20996;-64
2021/12/07 13:43:32;;;;;;;4.00;1.47;;;7.80;99.90;;;;;;5070264;28;20440;-65
2021/12/07 13:46:11;;;;;;;5.87;1.83;;;7.70;99.90;;;;;;5069915;28;20522;-66
2021/12/07 13:48:38;;;;;;;5.30;2.17;;;7.50;99.90;;;;;;5069236;28;20482;-65
2021/12/07 13:51:05;;;;;;;3.70;2.17;;;7.40;99.90;;;;;;5069864;28;20470;-65
2021/12/07 13:53:35;;;;;;;3.47;1.87;;;7.40;99.90;;;;;;5069815;28;20482;-65
2021/12/07 13:56:02;;;;;;;3.60;1.73;;;7.40;99.90;;;;;;5069988;28;20446;-65
2021/12/07 13:58:33;;;;;;;6.37;1.90;;;7.30;99.90;;;;;;5069469;28;20446;-65
2021/12/07 14:01:03;;;;;;;3.80;1.77;;;7.40;99.90;;;;;;5069572;28;20460;-65
2021/12/07 14:03:30;;;;;;;6.10;2.00;;;7.50;99.90;;;;;;5069950;28;20440;-66
2021/12/07 14:05:57;;;;;;;4.07;1.77;;;7.50;99.90;;;;;;5070109;28;20450;-65
2021/12/07 14:08:25;;;;;;;4.30;1.70;;;7.60;99.90;;;;;;5069416;28;20921;-65
2021/12/07 14:10:55;;;;;;;6.43;1.40;;;7.70;99.90;;;;;;5069412;28;20479;-65
2021/12/07 14:13:23;;;;;;;5.70;1.90;;;7.60;99.90;;;;;;5069969;28;20448;-65
2021/12/07 14:15:51;;;;;;;4.27;1.50;;;7.40;99.90;;;;;;5069667;28;20486;-65
2021/12/07 14:18:22;;;;;;;5.33;1.80;;;7.30;99.90;;;;;;5069677;28;20440;-65
2021/12/07 14:20:50;;;;;;;5.30;1.40;;;7.10;99.90;;;;;;5069461;28;20456;-66
2021/12/07 14:23:21;;;;;;;4.77;1.70;;;7.00;99.90;;;;;;5069080;28;20447;-66
2021/12/07 14:25:52;;;;;;;4.63;1.80;;;6.80;99.90;;;;;;5069300;28;20444;-66
2021/12/07 14:28:36;;;;;;;5.47;3.33;;;6.70;99.90;;;;;;5068889;28;21267;-65
2021/12/07 14:31:09;;;;;;;6.43;1.57;;;6.50;99.90;;;;;;5069212;28;20458;-65
2021/12/07 14:33:41;;;;;;;5.23;2.13;;;6.30;99.90;;;;;;5069211;28;20493;-66